DONNELLS (DON)

Elevation: 4835' · STANISLAUS R basin · Operator: US Bureau of Reclamation


Station comments:

05/29/2015The reservoir capacity was updated May 2015 with information from the USBR


Provisional data, subject to change.
Query executed Wednesday at 10:47:54   clock

Select a sensor type for a plot of data.
Note: Reservoir Flows are daily averages.

Earlier

Date STORAGE    RES CHG    OUTFLOW   
 AF   AF   CFS  
06/30/2015 56172 -113 256
07/01/2015 55992 -180 260
07/02/2015 55835 -157 226
07/03/2015 55795 -40 183
07/04/2015 55787 -8 154
07/05/2015 55755 -32 153
07/06/2015 55719 -36 149
07/07/2015 55671 -48 150
07/08/2015 55615 -56 157
07/09/2015 55815 200 140
07/10/2015 55396 -419 151
07/11/2015 55992 596 133
07/12/2015 55932 -- 172
07/13/2015 55904 -28 145
07/14/2015 55880 -24 135
07/15/2015 55880 0 148
07/16/2015 55880 0 149
07/17/2015 55896 16 151
07/18/2015 55755 -141 218
07/19/2015 59866 4111 203
07/20/2015 55555 -4311 182
07/21/2015 55563 8 154
07/22/2015 55575 12 152
07/23/2015 55483 -92 201
07/24/2015 54996 -487 388
07/25/2015 54559 -437 339
07/26/2015 54179 -380 318
07/27/2015 53764 -415 334
07/28/2015 53170 -594 410
07/29/2015 -- -- --

Later | Latest

Warning! This data is preliminary and subject to revision.

Show DON Map | Plot DON Data | 1 Month DON Data | Real-Time DON Data | DON Info